sensor_id;sensor_type;location;lat;lon;timestamp;P1;durP1;ratioP1;P2;durP2;ratioP2
10418;SDS011;5256;48.728;9.140;2023-05-07T00:01:36;0.30;;;0.30;;
10418;SDS011;5256;48.728;9.140;2023-05-07T00:04:01;0.30;;;0.30;;
10418;SDS011;5256;48.728;9.140;2023-05-07T00:06:28;0.30;;;0.30;;
10418;SDS011;5256;48.728;9.140;2023-05-07T00:08:54;0.30;;;0.30;;
10418;SDS011;5256;48.728;9.140;2023-05-07T00:11:21;0.30;;;0.30;;
10418;SDS011;5256;48.728;9.140;2023-05-07T00:13:47;0.40;;;0.40;;
10418;SDS011;5256;48.728;9.140;2023-05-07T00:16:13;0.40;;;0.40;;
10418;SDS011;5256;48.728;9.140;2023-05-07T00:18:38;0.30;;;0.30;;
10418;SDS011;5256;48.728;9.140;2023-05-07T00:21:04;0.40;;;0.40;;
10418;SDS011;5256;48.728;9.140;2023-05-07T00:23:29;0.40;;;0.40;;
10418;SDS011;5256;48.728;9.140;2023-05-07T00:25:55;0.40;;;0.40;;
10418;SDS011;5256;48.728;9.140;2023-05-07T00:28:21;0.30;;;0.30;;
10418;SDS011;5256;48.728;9.140;2023-05-07T00:30:46;0.50;;;0.50;;
10418;SDS011;5256;48.728;9.140;2023-05-07T00:33:12;0.30;;;0.30;;
10418;SDS011;5256;48.728;9.140;2023-05-07T00:35:37;0.50;;;0.50;;
10418;SDS011;5256;48.728;9.140;2023-05-07T00:38:03;0.30;;;0.30;;
10418;SDS011;5256;48.728;9.140;2023-05-07T00:40:29;0.30;;;0.30;;
10418;SDS011;5256;48.728;9.140;2023-05-07T00:42:54;0.43;;;0.43;;
10418;SDS011;5256;48.728;9.140;2023-05-07T00:45:22;0.30;;;0.30;;
10418;SDS011;5256;48.728;9.140;2023-05-07T00:47:55;0.40;;;0.40;;
10418;SDS011;5256;48.728;9.140;2023-05-07T00:50:28;0.30;;;0.30;;
10418;SDS011;5256;48.728;9.140;2023-05-07T00:52:55;0.30;;;0.30;;
10418;SDS011;5256;48.728;9.140;2023-05-07T00:55:21;0.40;;;0.40;;
10418;SDS011;5256;48.728;9.140;2023-05-07T00:57:48;0.37;;;0.37;;
10418;SDS011;5256;48.728;9.140;2023-05-07T01:00:15;0.30;;;0.30;;
10418;SDS011;5256;48.728;9.140;2023-05-07T01:02:41;0.40;;;0.40;;
10418;SDS011;5256;48.728;9.140;2023-05-07T01:05:08;0.40;;;0.40;;
10418;SDS011;5256;48.728;9.140;2023-05-07T01:07:36;0.30;;;0.30;;
10418;SDS011;5256;48.728;9.140;2023-05-07T01:10:04;0.30;;;0.30;;
10418;SDS011;5256;48.728;9.140;2023-05-07T01:12:30;0.30;;;0.30;;
10418;SDS011;5256;48.728;9.140;2023-05-07T01:14:56;0.40;;;0.40;;
10418;SDS011;5256;48.728;9.140;2023-05-07T01:17:22;0.40;;;0.40;;
10418;SDS011;5256;48.728;9.140;2023-05-07T01:19:48;0.40;;;0.40;;
10418;SDS011;5256;48.728;9.140;2023-05-07T01:22:15;0.50;;;0.50;;
10418;SDS011;5256;48.728;9.140;2023-05-07T01:24:43;0.40;;;0.40;;
10418;SDS011;5256;48.728;9.140;2023-05-07T01:27:09;0.40;;;0.40;;
10418;SDS011;5256;48.728;9.140;2023-05-07T01:29:34;0.30;;;0.30;;
10418;SDS011;5256;48.728;9.140;2023-05-07T01:32:00;0.40;;;0.40;;
10418;SDS011;5256;48.728;9.140;2023-05-07T01:34:28;0.40;;;0.40;;
10418;SDS011;5256;48.728;9.140;2023-05-07T01:36:56;0.47;;;0.47;;
10418;SDS011;5256;48.728;9.140;2023-05-07T01:39:27;0.30;;;0.30;;
10418;SDS011;5256;48.728;9.140;2023-05-07T01:41:57;0.50;;;0.50;;
10418;SDS011;5256;48.728;9.140;2023-05-07T01:44:24;0.40;;;0.40;;
10418;SDS011;5256;48.728;9.140;2023-05-07T01:46:51;0.40;;;0.40;;
10418;SDS011;5256;48.728;9.140;2023-05-07T01:49:17;0.40;;;0.40;;
10418;SDS011;5256;48.728;9.140;2023-05-07T01:51:43;0.30;;;0.30;;
10418;SDS011;5256;48.728;9.140;2023-05-07T01:54:09;0.50;;;0.50;;
10418;SDS011;5256;48.728;9.140;2023-05-07T01:56:34;0.40;;;0.40;;
10418;SDS011;5256;48.728;9.140;2023-05-07T01:59:00;0.40;;;0.40;;
10418;SDS011;5256;48.728;9.140;2023-05-07T02:01:26;0.30;;;0.30;;
10418;SDS011;5256;48.728;9.140;2023-05-07T02:03:52;0.30;;;0.30;;
10418;SDS011;5256;48.728;9.140;2023-05-07T02:06:18;0.40;;;0.40;;
10418;SDS011;5256;48.728;9.140;2023-05-07T02:08:44;0.30;;;0.30;;
10418;SDS011;5256;48.728;9.140;2023-05-07T02:11:11;0.33;;;0.33;;
10418;SDS011;5256;48.728;9.140;2023-05-07T02:13:36;0.30;;;0.30;;
10418;SDS011;5256;48.728;9.140;2023-05-07T02:16:02;0.50;;;0.50;;
10418;SDS011;5256;48.728;9.140;2023-05-07T02:18:28;0.30;;;0.30;;
10418;SDS011;5256;48.728;9.140;2023-05-07T02:20:54;0.30;;;0.30;;
10418;SDS011;5256;48.728;9.140;2023-05-07T02:23:20;0.30;;;0.30;;
10418;SDS011;5256;48.728;9.140;2023-05-07T02:25:45;0.30;;;0.30;;
10418;SDS011;5256;48.728;9.140;2023-05-07T02:28:11;0.40;;;0.40;;
10418;SDS011;5256;48.728;9.140;2023-05-07T02:30:37;0.50;;;0.50;;
10418;SDS011;5256;48.728;9.140;2023-05-07T02:33:03;0.30;;;0.30;;
10418;SDS011;5256;48.728;9.140;2023-05-07T02:35:28;0.30;;;0.30;;
10418;SDS011;5256;48.728;9.140;2023-05-07T02:37:54;0.30;;;0.30;;
10418;SDS011;5256;48.728;9.140;2023-05-07T02:40:19;0.30;;;0.30;;
10418;SDS011;5256;48.728;9.140;2023-05-07T02:42:45;0.30;;;0.30;;
10418;SDS011;5256;48.728;9.140;2023-05-07T02:45:11;0.40;;;0.40;;
10418;SDS011;5256;48.728;9.140;2023-05-07T02:47:36;0.30;;;0.30;;
10418;SDS011;5256;48.728;9.140;2023-05-07T02:50:02;0.30;;;0.30;;
10418;SDS011;5256;48.728;9.140;2023-05-07T02:52:28;0.30;;;0.30;;
10418;SDS011;5256;48.728;9.140;2023-05-07T02:54:54;0.40;;;0.40;;
10418;SDS011;5256;48.728;9.140;2023-05-07T02:57:19;0.40;;;0.40;;
10418;SDS011;5256;48.728;9.140;2023-05-07T02:59:45;0.30;;;0.30;;
10418;SDS011;5256;48.728;9.140;2023-05-07T03:02:11;0.30;;;0.30;;
10418;SDS011;5256;48.728;9.140;2023-05-07T03:04:36;0.30;;;0.30;;
10418;SDS011;5256;48.728;9.140;2023-05-07T03:07:02;0.30;;;0.30;;
10418;SDS011;5256;48.728;9.140;2023-05-07T03:09:27;0.40;;;0.40;;
10418;SDS011;5256;48.728;9.140;2023-05-07T03:11:53;0.30;;;0.30;;
10418;SDS011;5256;48.728;9.140;2023-05-07T03:14:19;0.40;;;0.40;;
10418;SDS011;5256;48.728;9.140;2023-05-07T03:16:45;0.33;;;0.33;;
10418;SDS011;5256;48.728;9.140;2023-05-07T03:19:10;0.40;;;0.40;;
10418;SDS011;5256;48.728;9.140;2023-05-07T03:21:36;0.33;;;0.33;;
10418;SDS011;5256;48.728;9.140;2023-05-07T03:24:01;0.40;;;0.40;;
10418;SDS011;5256;48.728;9.140;2023-05-07T03:26:27;0.30;;;0.30;;
10418;SDS011;5256;48.728;9.140;2023-05-07T03:28:53;0.30;;;0.30;;
10418;SDS011;5256;48.728;9.140;2023-05-07T03:31:18;0.30;;;0.30;;
10418;SDS011;5256;48.728;9.140;2023-05-07T03:33:54;0.40;;;0.40;;
10418;SDS011;5256;48.728;9.140;2023-05-07T03:36:21;0.40;;;0.40;;
10418;SDS011;5256;48.728;9.140;2023-05-07T03:38:47;0.47;;;0.47;;
10418;SDS011;5256;48.728;9.140;2023-05-07T03:41:13;0.43;;;0.43;;
10418;SDS011;5256;48.728;9.140;2023-05-07T03:43:39;0.40;;;0.40;;
10418;SDS011;5256;48.728;9.140;2023-05-07T03:46:04;0.50;;;0.50;;
10418;SDS011;5256;48.728;9.140;2023-05-07T03:48:30;0.50;;;0.50;;
10418;SDS011;5256;48.728;9.140;2023-05-07T03:50:57;0.40;;;0.40;;
10418;SDS011;5256;48.728;9.140;2023-05-07T03:53:22;0.40;;;0.40;;
10418;SDS011;5256;48.728;9.140;2023-05-07T03:55:48;0.40;;;0.40;;
10418;SDS011;5256;48.728;9.140;2023-05-07T03:58:14;0.40;;;0.40;;
10418;SDS011;5256;48.728;9.140;2023-05-07T04:00:40;0.40;;;0.40;;
10418;SDS011;5256;48.728;9.140;2023-05-07T04:03:06;0.40;;;0.40;;
10418;SDS011;5256;48.728;9.140;2023-05-07T04:05:32;0.40;;;0.40;;
10418;SDS011;5256;48.728;9.140;2023-05-07T04:07:58;0.30;;;0.30;;
10418;SDS011;5256;48.728;9.140;2023-05-07T04:10:24;0.30;;;0.30;;
10418;SDS011;5256;48.728;9.140;2023-05-07T04:12:50;0.30;;;0.30;;
10418;SDS011;5256;48.728;9.140;2023-05-07T04:15:15;0.30;;;0.30;;
10418;SDS011;5256;48.728;9.140;2023-05-07T04:17:41;0.40;;;0.40;;
10418;SDS011;5256;48.728;9.140;2023-05-07T04:20:08;0.40;;;0.40;;
10418;SDS011;5256;48.728;9.140;2023-05-07T04:22:35;0.40;;;0.40;;
10418;SDS011;5256;48.728;9.140;2023-05-07T04:25:01;0.30;;;0.30;;
10418;SDS011;5256;48.728;9.140;2023-05-07T04:27:27;0.30;;;0.30;;
10418;SDS011;5256;48.728;9.140;2023-05-07T04:29:53;0.50;;;0.50;;
10418;SDS011;5256;48.728;9.140;2023-05-07T04:32:20;0.40;;;0.40;;
10418;SDS011;5256;48.728;9.140;2023-05-07T04:34:50;0.30;;;0.30;;
10418;SDS011;5256;48.728;9.140;2023-05-07T04:37:15;0.30;;;0.30;;
10418;SDS011;5256;48.728;9.140;2023-05-07T04:39:41;0.30;;;0.30;;
10418;SDS011;5256;48.728;9.140;2023-05-07T04:42:06;0.37;;;0.37;;
10418;SDS011;5256;48.728;9.140;2023-05-07T04:44:34;0.40;;;0.40;;
10418;SDS011;5256;48.728;9.140;2023-05-07T04:47:01;0.40;;;0.40;;
10418;SDS011;5256;48.728;9.140;2023-05-07T04:49:27;0.30;;;0.30;;
10418;SDS011;5256;48.728;9.140;2023-05-07T04:51:53;0.40;;;0.40;;
10418;SDS011;5256;48.728;9.140;2023-05-07T04:54:18;0.30;;;0.30;;
10418;SDS011;5256;48.728;9.140;2023-05-07T04:56:44;0.50;;;0.50;;
10418;SDS011;5256;48.728;9.140;2023-05-07T04:59:09;0.40;;;0.40;;
10418;SDS011;5256;48.728;9.140;2023-05-07T05:01:35;0.30;;;0.30;;
10418;SDS011;5256;48.728;9.140;2023-05-07T05:04:00;0.40;;;0.40;;
10418;SDS011;5256;48.728;9.140;2023-05-07T05:06:26;0.40;;;0.40;;
10418;SDS011;5256;48.728;9.140;2023-05-07T05:08:51;0.40;;;0.40;;
10418;SDS011;5256;48.728;9.140;2023-05-07T05:11:17;0.20;;;0.20;;
10418;SDS011;5256;48.728;9.140;2023-05-07T05:13:43;0.40;;;0.40;;
10418;SDS011;5256;48.728;9.140;2023-05-07T05:16:08;0.30;;;0.30;;
10418;SDS011;5256;48.728;9.140;2023-05-07T05:18:34;0.30;;;0.30;;
10418;SDS011;5256;48.728;9.140;2023-05-07T05:20:59;0.30;;;0.30;;
10418;SDS011;5256;48.728;9.140;2023-05-07T05:23:25;0.43;;;0.43;;
10418;SDS011;5256;48.728;9.140;2023-05-07T05:25:55;0.30;;;0.30;;
10418;SDS011;5256;48.728;9.140;2023-05-07T05:28:21;0.30;;;0.30;;
10418;SDS011;5256;48.728;9.140;2023-05-07T05:30:46;0.40;;;0.40;;
10418;SDS011;5256;48.728;9.140;2023-05-07T05:33:12;0.40;;;0.40;;
10418;SDS011;5256;48.728;9.140;2023-05-07T05:35:38;0.30;;;0.30;;
10418;SDS011;5256;48.728;9.140;2023-05-07T05:38:03;0.30;;;0.30;;
10418;SDS011;5256;48.728;9.140;2023-05-07T05:40:29;0.30;;;0.30;;
10418;SDS011;5256;48.728;9.140;2023-05-07T05:42:54;0.40;;;0.40;;
10418;SDS011;5256;48.728;9.140;2023-05-07T05:45:20;0.20;;;0.20;;
10418;SDS011;5256;48.728;9.140;2023-05-07T05:47:45;0.20;;;0.20;;
10418;SDS011;5256;48.728;9.140;2023-05-07T05:50:11;0.30;;;0.30;;
10418;SDS011;5256;48.728;9.140;2023-05-07T05:52:37;0.20;;;0.20;;
10418;SDS011;5256;48.728;9.140;2023-05-07T05:55:03;0.30;;;0.30;;
10418;SDS011;5256;48.728;9.140;2023-05-07T05:57:29;0.20;;;0.20;;
10418;SDS011;5256;48.728;9.140;2023-05-07T05:59:55;0.30;;;0.30;;
10418;SDS011;5256;48.728;9.140;2023-05-07T06:02:21;0.20;;;0.20;;
10418;SDS011;5256;48.728;9.140;2023-05-07T06:04:46;0.20;;;0.20;;
10418;SDS011;5256;48.728;9.140;2023-05-07T06:07:12;0.10;;;0.10;;
10418;SDS011;5256;48.728;9.140;2023-05-07T06:09:37;0.10;;;0.10;;
10418;SDS011;5256;48.728;9.140;2023-05-07T06:12:04;0.20;;;0.20;;
10418;SDS011;5256;48.728;9.140;2023-05-07T06:14:30;0.13;;;0.13;;
10418;SDS011;5256;48.728;9.140;2023-05-07T06:16:56;0.23;;;0.23;;
10418;SDS011;5256;48.728;9.140;2023-05-07T06:19:22;0.13;;;0.13;;
10418;SDS011;5256;48.728;9.140;2023-05-07T06:21:48;0.30;;;0.30;;
10418;SDS011;5256;48.728;9.140;2023-05-07T06:24:14;0.20;;;0.20;;
10418;SDS011;5256;48.728;9.140;2023-05-07T06:26:40;0.30;;;0.30;;
10418;SDS011;5256;48.728;9.140;2023-05-07T06:29:13;0.20;;;0.20;;
10418;SDS011;5256;48.728;9.140;2023-05-07T06:31:38;0.20;;;0.20;;
10418;SDS011;5256;48.728;9.140;2023-05-07T06:34:04;0.20;;;0.20;;
10418;SDS011;5256;48.728;9.140;2023-05-07T06:36:30;0.20;;;0.20;;
10418;SDS011;5256;48.728;9.140;2023-05-07T06:38:56;0.20;;;0.20;;
10418;SDS011;5256;48.728;9.140;2023-05-07T06:41:25;0.20;;;0.20;;
10418;SDS011;5256;48.728;9.140;2023-05-07T06:43:50;0.30;;;0.30;;
10418;SDS011;5256;48.728;9.140;2023-05-07T06:46:16;0.27;;;0.27;;
10418;SDS011;5256;48.728;9.140;2023-05-07T06:48:42;0.30;;;0.30;;
10418;SDS011;5256;48.728;9.140;2023-05-07T06:51:07;0.20;;;0.20;;
10418;SDS011;5256;48.728;9.140;2023-05-07T06:53:33;0.20;;;0.20;;
10418;SDS011;5256;48.728;9.140;2023-05-07T06:56:00;0.20;;;0.20;;
10418;SDS011;5256;48.728;9.140;2023-05-07T06:58:26;0.20;;;0.20;;
10418;SDS011;5256;48.728;9.140;2023-05-07T07:00:51;0.40;;;0.40;;
10418;SDS011;5256;48.728;9.140;2023-05-07T07:03:17;0.30;;;0.30;;
10418;SDS011;5256;48.728;9.140;2023-05-07T07:05:42;0.20;;;0.20;;
10418;SDS011;5256;48.728;9.140;2023-05-07T07:08:08;0.20;;;0.20;;
10418;SDS011;5256;48.728;9.140;2023-05-07T07:10:34;0.20;;;0.20;;
10418;SDS011;5256;48.728;9.140;2023-05-07T07:13:00;0.20;;;0.20;;
10418;SDS011;5256;48.728;9.140;2023-05-07T07:15:26;0.10;;;0.10;;
10418;SDS011;5256;48.728;9.140;2023-05-07T07:17:51;0.10;;;0.10;;
10418;SDS011;5256;48.728;9.140;2023-05-07T07:20:17;0.20;;;0.20;;
10418;SDS011;5256;48.728;9.140;2023-05-07T07:22:42;0.10;;;0.10;;
10418;SDS011;5256;48.728;9.140;2023-05-07T07:25:08;0.20;;;0.20;;
10418;SDS011;5256;48.728;9.140;2023-05-07T07:27:34;0.10;;;0.10;;
10418;SDS011;5256;48.728;9.140;2023-05-07T07:30:01;0.20;;;0.20;;
10418;SDS011;5256;48.728;9.140;2023-05-07T07:32:26;0.10;;;0.10;;
10418;SDS011;5256;48.728;9.140;2023-05-07T07:34:52;0.10;;;0.10;;
10418;SDS011;5256;48.728;9.140;2023-05-07T07:37:17;0.13;;;0.13;;
10418;SDS011;5256;48.728;9.140;2023-05-07T07:39:43;0.10;;;0.10;;
10418;SDS011;5256;48.728;9.140;2023-05-07T07:42:08;0.10;;;0.10;;
10418;SDS011;5256;48.728;9.140;2023-05-07T07:44:34;0.10;;;0.10;;
10418;SDS011;5256;48.728;9.140;2023-05-07T07:46:59;0.10;;;0.10;;
10418;SDS011;5256;48.728;9.140;2023-05-07T07:49:25;0.10;;;0.10;;
10418;SDS011;5256;48.728;9.140;2023-05-07T07:51:51;0.10;;;0.10;;
10418;SDS011;5256;48.728;9.140;2023-05-07T07:54:16;0.10;;;0.10;;
10418;SDS011;5256;48.728;9.140;2023-05-07T07:56:42;0.10;;;0.10;;
10418;SDS011;5256;48.728;9.140;2023-05-07T07:59:08;0.10;;;0.10;;
10418;SDS011;5256;48.728;9.140;2023-05-07T08:01:33;0.10;;;0.10;;
10418;SDS011;5256;48.728;9.140;2023-05-07T08:03:59;0.10;;;0.10;;
10418;SDS011;5256;48.728;9.140;2023-05-07T08:06:27;0.10;;;0.10;;
10418;SDS011;5256;48.728;9.140;2023-05-07T08:08:53;0.10;;;0.10;;
10418;SDS011;5256;48.728;9.140;2023-05-07T08:11:19;0.10;;;0.10;;
10418;SDS011;5256;48.728;9.140;2023-05-07T08:13:46;0.10;;;0.10;;
10418;SDS011;5256;48.728;9.140;2023-05-07T08:16:12;0.10;;;0.10;;
10418;SDS011;5256;48.728;9.140;2023-05-07T08:18:38;0.10;;;0.10;;
10418;SDS011;5256;48.728;9.140;2023-05-07T08:21:03;0.10;;;0.10;;
10418;SDS011;5256;48.728;9.140;2023-05-07T08:23:29;0.10;;;0.10;;
10418;SDS011;5256;48.728;9.140;2023-05-07T08:25:55;0.10;;;0.10;;
10418;SDS011;5256;48.728;9.140;2023-05-07T08:28:21;0.10;;;0.10;;
10418;SDS011;5256;48.728;9.140;2023-05-07T08:30:46;0.10;;;0.10;;
10418;SDS011;5256;48.728;9.140;2023-05-07T08:33:12;0.10;;;0.10;;
10418;SDS011;5256;48.728;9.140;2023-05-07T08:35:38;0.10;;;0.10;;
10418;SDS011;5256;48.728;9.140;2023-05-07T08:38:03;0.10;;;0.10;;
10418;SDS011;5256;48.728;9.140;2023-05-07T08:40:29;0.10;;;0.10;;
10418;SDS011;5256;48.728;9.140;2023-05-07T08:43:01;0.20;;;0.20;;
10418;SDS011;5256;48.728;9.140;2023-05-07T08:45:27;0.10;;;0.10;;
10418;SDS011;5256;48.728;9.140;2023-05-07T08:47:57;0.10;;;0.10;;
10418;SDS011;5256;48.728;9.140;2023-05-07T08:50:24;0.10;;;0.10;;
10418;SDS011;5256;48.728;9.140;2023-05-07T08:52:50;0.20;;;0.20;;
10418;SDS011;5256;48.728;9.140;2023-05-07T08:55:15;0.10;;;0.10;;
10418;SDS011;5256;48.728;9.140;2023-05-07T08:57:42;0.10;;;0.10;;
10418;SDS011;5256;48.728;9.140;2023-05-07T09:00:07;0.10;;;0.10;;
10418;SDS011;5256;48.728;9.140;2023-05-07T09:02:35;0.10;;;0.10;;
10418;SDS011;5256;48.728;9.140;2023-05-07T09:05:01;0.10;;;0.10;;
10418;SDS011;5256;48.728;9.140;2023-05-07T09:07:27;0.10;;;0.10;;
10418;SDS011;5256;48.728;9.140;2023-05-07T09:09:52;0.20;;;0.20;;
10418;SDS011;5256;48.728;9.140;2023-05-07T09:12:20;0.10;;;0.10;;
10418;SDS011;5256;48.728;9.140;2023-05-07T09:14:46;0.10;;;0.10;;
10418;SDS011;5256;48.728;9.140;2023-05-07T09:17:12;0.13;;;0.13;;
10418;SDS011;5256;48.728;9.140;2023-05-07T09:19:38;0.10;;;0.10;;
10418;SDS011;5256;48.728;9.140;2023-05-07T09:22:04;0.10;;;0.10;;
10418;SDS011;5256;48.728;9.140;2023-05-07T09:24:32;0.10;;;0.10;;
10418;SDS011;5256;48.728;9.140;2023-05-07T09:27:02;0.10;;;0.10;;
10418;SDS011;5256;48.728;9.140;2023-05-07T09:29:33;0.10;;;0.10;;
10418;SDS011;5256;48.728;9.140;2023-05-07T09:32:07;0.10;;;0.10;;
10418;SDS011;5256;48.728;9.140;2023-05-07T09:34:33;0.10;;;0.10;;
10418;SDS011;5256;48.728;9.140;2023-05-07T09:37:00;0.20;;;0.20;;
10418;SDS011;5256;48.728;9.140;2023-05-07T09:39:42;0.10;;;0.10;;
10418;SDS011;5256;48.728;9.140;2023-05-07T09:42:09;0.10;;;0.10;;
10418;SDS011;5256;48.728;9.140;2023-05-07T09:44:36;0.10;;;0.10;;
10418;SDS011;5256;48.728;9.140;2023-05-07T09:47:04;0.10;;;0.10;;
10418;SDS011;5256;48.728;9.140;2023-05-07T09:49:33;0.10;;;0.10;;
10418;SDS011;5256;48.728;9.140;2023-05-07T09:52:01;0.10;;;0.10;;
10418;SDS011;5256;48.728;9.140;2023-05-07T09:54:27;0.10;;;0.10;;
10418;SDS011;5256;48.728;9.140;2023-05-07T09:56:54;0.10;;;0.10;;
10418;SDS011;5256;48.728;9.140;2023-05-07T09:59:20;0.00;;;0.00;;
10418;SDS011;5256;48.728;9.140;2023-05-07T10:01:47;0.10;;;0.10;;
10418;SDS011;5256;48.728;9.140;2023-05-07T10:04:13;0.10;;;0.10;;
10418;SDS011;5256;48.728;9.140;2023-05-07T10:06:39;0.10;;;0.10;;
10418;SDS011;5256;48.728;9.140;2023-05-07T10:09:06;0.03;;;0.03;;
10418;SDS011;5256;48.728;9.140;2023-05-07T10:11:35;0.10;;;0.10;;
10418;SDS011;5256;48.728;9.140;2023-05-07T10:14:02;0.10;;;0.10;;
10418;SDS011;5256;48.728;9.140;2023-05-07T10:16:34;0.10;;;0.10;;
10418;SDS011;5256;48.728;9.140;2023-05-07T10:19:04;0.10;;;0.10;;
10418;SDS011;5256;48.728;9.140;2023-05-07T10:21:31;0.10;;;0.10;;
10418;SDS011;5256;48.728;9.140;2023-05-07T10:24:25;0.00;;;0.00;;
10418;SDS011;5256;48.728;9.140;2023-05-07T10:26:54;0.10;;;0.10;;
10418;SDS011;5256;48.728;9.140;2023-05-07T10:29:25;0.20;;;0.20;;
10418;SDS011;5256;48.728;9.140;2023-05-07T10:32:23;0.10;;;0.10;;
10418;SDS011;5256;48.728;9.140;2023-05-07T10:35:09;0.10;;;0.10;;
10418;SDS011;5256;48.728;9.140;2023-05-07T10:37:40;0.10;;;0.10;;
10418;SDS011;5256;48.728;9.140;2023-05-07T10:40:06;0.10;;;0.10;;
10418;SDS011;5256;48.728;9.140;2023-05-07T10:42:33;0.10;;;0.10;;
10418;SDS011;5256;48.728;9.140;2023-05-07T10:45:11;0.10;;;0.10;;
10418;SDS011;5256;48.728;9.140;2023-05-07T10:50:30;0.10;;;0.10;;
10418;SDS011;5256;48.728;9.140;2023-05-07T10:55:47;0.10;;;0.10;;
10418;SDS011;5256;48.728;9.140;2023-05-07T10:58:29;0.13;;;0.13;;
10418;SDS011;5256;48.728;9.140;2023-05-07T11:00:59;0.10;;;0.10;;
10418;SDS011;5256;48.728;9.140;2023-05-07T11:03:26;0.10;;;0.10;;
10418;SDS011;5256;48.728;9.140;2023-05-07T11:06:08;0.20;;;0.20;;
10418;SDS011;5256;48.728;9.140;2023-05-07T11:14:42;0.10;;;0.10;;
10418;SDS011;5256;48.728;9.140;2023-05-07T11:17:09;0.10;;;0.10;;
10418;SDS011;5256;48.728;9.140;2023-05-07T11:19:51;0.20;;;0.20;;
10418;SDS011;5256;48.728;9.140;2023-05-07T11:22:51;0.20;;;0.20;;
10418;SDS011;5256;48.728;9.140;2023-05-07T11:25:09;0.10;;;0.10;;
10418;SDS011;5256;48.728;9.140;2023-05-07T11:27:35;0.10;;;0.10;;
10418;SDS011;5256;48.728;9.140;2023-05-07T11:30:01;0.20;;;0.20;;
10418;SDS011;5256;48.728;9.140;2023-05-07T11:32:27;0.10;;;0.10;;
10418;SDS011;5256;48.728;9.140;2023-05-07T11:34:55;0.10;;;0.10;;
10418;SDS011;5256;48.728;9.140;2023-05-07T11:37:21;0.10;;;0.10;;
10418;SDS011;5256;48.728;9.140;2023-05-07T11:39:48;0.10;;;0.10;;
10418;SDS011;5256;48.728;9.140;2023-05-07T11:42:27;0.10;;;0.10;;
10418;SDS011;5256;48.728;9.140;2023-05-07T11:44:53;0.10;;;0.10;;
10418;SDS011;5256;48.728;9.140;2023-05-07T11:47:20;0.20;;;0.20;;
10418;SDS011;5256;48.728;9.140;2023-05-07T11:49:49;0.10;;;0.10;;
10418;SDS011;5256;48.728;9.140;2023-05-07T11:52:17;0.20;;;0.20;;
10418;SDS011;5256;48.728;9.140;2023-05-07T11:54:50;0.10;;;0.10;;
10418;SDS011;5256;48.728;9.140;2023-05-07T11:57:17;0.10;;;0.10;;
10418;SDS011;5256;48.728;9.140;2023-05-07T11:59:42;0.20;;;0.20;;
10418;SDS011;5256;48.728;9.140;2023-05-07T12:02:14;0.10;;;0.10;;
10418;SDS011;5256;48.728;9.140;2023-05-07T12:04:43;0.20;;;0.20;;
10418;SDS011;5256;48.728;9.140;2023-05-07T12:07:12;0.20;;;0.20;;
10418;SDS011;5256;48.728;9.140;2023-05-07T12:09:39;0.20;;;0.20;;
10418;SDS011;5256;48.728;9.140;2023-05-07T12:12:05;0.10;;;0.10;;
10418;SDS011;5256;48.728;9.140;2023-05-07T12:14:31;0.13;;;0.13;;
10418;SDS011;5256;48.728;9.140;2023-05-07T12:16:57;0.20;;;0.20;;
10418;SDS011;5256;48.728;9.140;2023-05-07T12:19:30;0.30;;;0.30;;
10418;SDS011;5256;48.728;9.140;2023-05-07T12:21:56;0.20;;;0.20;;
10418;SDS011;5256;48.728;9.140;2023-05-07T12:24:22;0.30;;;0.30;;
10418;SDS011;5256;48.728;9.140;2023-05-07T12:26:48;0.20;;;0.20;;
10418;SDS011;5256;48.728;9.140;2023-05-07T12:29:14;0.10;;;0.10;;
10418;SDS011;5256;48.728;9.140;2023-05-07T12:31:40;0.40;;;0.40;;
10418;SDS011;5256;48.728;9.140;2023-05-07T12:34:06;0.30;;;0.30;;
10418;SDS011;5256;48.728;9.140;2023-05-07T12:36:39;0.30;;;0.30;;
10418;SDS011;5256;48.728;9.140;2023-05-07T12:39:05;0.20;;;0.20;;
10418;SDS011;5256;48.728;9.140;2023-05-07T12:41:35;0.33;;;0.33;;
10418;SDS011;5256;48.728;9.140;2023-05-07T12:44:16;0.30;;;0.30;;
10418;SDS011;5256;48.728;9.140;2023-05-07T12:46:42;0.30;;;0.30;;
10418;SDS011;5256;48.728;9.140;2023-05-07T12:49:07;0.30;;;0.30;;
10418;SDS011;5256;48.728;9.140;2023-05-07T12:51:34;0.28;;;0.28;;
10418;SDS011;5256;48.728;9.140;2023-05-07T12:54:01;0.30;;;0.30;;
10418;SDS011;5256;48.728;9.140;2023-05-07T12:56:30;0.30;;;0.30;;
10418;SDS011;5256;48.728;9.140;2023-05-07T12:58:59;0.23;;;0.23;;
10418;SDS011;5256;48.728;9.140;2023-05-07T13:01:28;0.40;;;0.40;;
10418;SDS011;5256;48.728;9.140;2023-05-07T13:03:55;0.30;;;0.30;;
10418;SDS011;5256;48.728;9.140;2023-05-07T13:06:25;0.40;;;0.40;;
10418;SDS011;5256;48.728;9.140;2023-05-07T13:08:51;0.30;;;0.30;;
10418;SDS011;5256;48.728;9.140;2023-05-07T13:11:16;0.30;;;0.30;;
10418;SDS011;5256;48.728;9.140;2023-05-07T13:13:42;0.30;;;0.30;;
10418;SDS011;5256;48.728;9.140;2023-05-07T13:16:08;0.20;;;0.20;;
10418;SDS011;5256;48.728;9.140;2023-05-07T13:18:35;0.30;;;0.30;;
10418;SDS011;5256;48.728;9.140;2023-05-07T13:21:01;0.30;;;0.30;;
10418;SDS011;5256;48.728;9.140;2023-05-07T13:23:26;0.30;;;0.30;;
10418;SDS011;5256;48.728;9.140;2023-05-07T13:25:53;0.30;;;0.30;;
10418;SDS011;5256;48.728;9.140;2023-05-07T13:28:19;0.30;;;0.30;;
10418;SDS011;5256;48.728;9.140;2023-05-07T13:30:45;0.37;;;0.37;;
10418;SDS011;5256;48.728;9.140;2023-05-07T13:33:11;0.47;;;0.47;;
10418;SDS011;5256;48.728;9.140;2023-05-07T13:35:37;0.40;;;0.40;;
10418;SDS011;5256;48.728;9.140;2023-05-07T13:38:03;0.30;;;0.30;;
10418;SDS011;5256;48.728;9.140;2023-05-07T13:40:29;0.40;;;0.40;;
10418;SDS011;5256;48.728;9.140;2023-05-07T13:42:56;0.40;;;0.40;;
10418;SDS011;5256;48.728;9.140;2023-05-07T13:45:23;0.30;;;0.30;;
10418;SDS011;5256;48.728;9.140;2023-05-07T13:47:50;0.40;;;0.40;;
10418;SDS011;5256;48.728;9.140;2023-05-07T13:50:16;0.30;;;0.30;;
10418;SDS011;5256;48.728;9.140;2023-05-07T13:52:43;0.40;;;0.40;;
10418;SDS011;5256;48.728;9.140;2023-05-07T13:55:15;0.40;;;0.40;;
10418;SDS011;5256;48.728;9.140;2023-05-07T13:57:45;0.40;;;0.40;;
10418;SDS011;5256;48.728;9.140;2023-05-07T14:00:11;0.20;;;0.20;;
10418;SDS011;5256;48.728;9.140;2023-05-07T14:02:38;0.30;;;0.30;;
10418;SDS011;5256;48.728;9.140;2023-05-07T14:05:04;0.30;;;0.30;;
10418;SDS011;5256;48.728;9.140;2023-05-07T14:07:30;0.37;;;0.37;;
10418;SDS011;5256;48.728;9.140;2023-05-07T14:09:56;0.30;;;0.30;;
10418;SDS011;5256;48.728;9.140;2023-05-07T14:12:22;0.40;;;0.40;;
10418;SDS011;5256;48.728;9.140;2023-05-07T14:14:47;0.40;;;0.40;;
10418;SDS011;5256;48.728;9.140;2023-05-07T14:17:14;0.30;;;0.30;;
10418;SDS011;5256;48.728;9.140;2023-05-07T14:19:41;0.40;;;0.40;;
10418;SDS011;5256;48.728;9.140;2023-05-07T14:22:07;0.30;;;0.30;;
10418;SDS011;5256;48.728;9.140;2023-05-07T14:24:32;0.40;;;0.40;;
10418;SDS011;5256;48.728;9.140;2023-05-07T14:26:58;0.30;;;0.30;;
10418;SDS011;5256;48.728;9.140;2023-05-07T14:29:23;0.30;;;0.30;;
10418;SDS011;5256;48.728;9.140;2023-05-07T14:31:49;0.40;;;0.40;;
10418;SDS011;5256;48.728;9.140;2023-05-07T14:34:15;0.40;;;0.40;;
10418;SDS011;5256;48.728;9.140;2023-05-07T14:36:40;0.30;;;0.30;;
10418;SDS011;5256;48.728;9.140;2023-05-07T14:39:06;0.47;;;0.47;;
10418;SDS011;5256;48.728;9.140;2023-05-07T14:41:32;0.40;;;0.40;;
10418;SDS011;5256;48.728;9.140;2023-05-07T14:43:58;0.40;;;0.40;;
10418;SDS011;5256;48.728;9.140;2023-05-07T14:46:23;0.30;;;0.30;;
10418;SDS011;5256;48.728;9.140;2023-05-07T14:48:49;0.40;;;0.40;;
10418;SDS011;5256;48.728;9.140;2023-05-07T14:51:15;0.30;;;0.30;;
10418;SDS011;5256;48.728;9.140;2023-05-07T14:53:41;0.30;;;0.30;;
10418;SDS011;5256;48.728;9.140;2023-05-07T14:56:07;0.27;;;0.27;;
10418;SDS011;5256;48.728;9.140;2023-05-07T14:58:33;0.40;;;0.40;;
10418;SDS011;5256;48.728;9.140;2023-05-07T15:00:59;0.40;;;0.40;;
10418;SDS011;5256;48.728;9.140;2023-05-07T15:03:24;0.40;;;0.40;;
10418;SDS011;5256;48.728;9.140;2023-05-07T15:05:50;0.30;;;0.30;;
10418;SDS011;5256;48.728;9.140;2023-05-07T15:08:16;0.20;;;0.20;;
10418;SDS011;5256;48.728;9.140;2023-05-07T15:10:42;0.30;;;0.30;;